Time;durP1;ratioP1;P1;durP2;ratioP2;P2;SDS_P1;SDS_P2;PMS_P1;PMS_P2;Temp;Humidity;BMP_temperature;BMP_pressure;BME280_temperature;BME280_humidity;BME280_pressure;Samples;Min_cycle;Max_cycle;Signal;HPM_P1;HPM_P2
2022/08/25 00:02:16;;;;;;;;;;;;;;;;;;4808048;29;19952;-50
2022/08/25 00:04:43;;;;;;;;;;;;;;;;;;4807895;29;19925;-44
2022/08/25 00:07:11;;;;;;;;;;;;;;;;;;4807621;29;19932;-50
2022/08/25 00:09:38;;;;;;;;;;;;;;;;;;4807950;29;19929;-47
2022/08/25 00:12:05;;;;;;;;;;;;;;;;;;4807905;29;19976;-44
2022/08/25 00:14:34;;;;;;;;;;;;;;;;;;4807772;29;19925;-51
2022/08/25 00:17:01;;;;;;;;;;;;;;;;;;4807647;29;20424;-44
2022/08/25 00:19:31;;;;;;;;;;;;;;;;;;4812761;29;19929;-45
2022/08/25 00:22:00;;;;;;;;;;;;;;;;;;4825844;29;20338;-46
2022/08/25 00:24:27;;;;;;;;;;;;;;;;;;4825536;29;19941;-44
2022/08/25 00:26:55;;;;;;;;;;;;;;;;;;4839312;29;19925;-46
2022/08/25 00:29:26;;;;;;;;;;;;;;;;;;4825692;29;19932;-43
2022/08/25 00:31:54;;;;;;;;;;;;;;;;;;4825925;29;19925;-47
2022/08/25 00:34:25;;;;;;;;;;;;;;;;;;4825313;29;19924;-45
2022/08/25 00:36:53;;;;;;;;;;;;;;;;;;4825466;29;19929;-45
2022/08/25 00:39:21;;;;;;;;;;;;;;;;;;4825367;29;19929;-45
2022/08/25 00:41:49;;;;;;;;;;;;;;;;;;4839359;29;19928;-44
2022/08/25 00:44:17;;;;;;;;;;;;;;;;;;4825371;29;19971;-44
2022/08/25 00:46:46;;;;;;;;;;;;;;;;;;4839133;29;19925;-44
2022/08/25 00:49:19;;;;;;;;;;;;;;;;;;4825260;29;20349;-43
2022/08/25 00:51:54;;;;;;;;;;;;;;;;;;4825135;29;20330;-43
2022/08/25 00:54:24;;;;;;;;;;;;;;;;;;4824961;29;19925;-46
2022/08/25 00:56:51;;;;;;;;;;;;;;;;;;4824915;29;19924;-42
2022/08/25 00:59:19;;;;;;;;;;;;;;;;;;4825087;29;19925;-46
2022/08/25 01:01:48;;;;;;;;;;;;;;;;;;4824967;29;19940;-44
2022/08/25 01:04:15;;;;;;;;;;;;;;;;;;4825326;29;19960;-44
2022/08/25 01:06:43;;;;;;;;;;;;;;;;;;4824841;29;20424;-45
2022/08/25 01:09:12;;;;;;;;;;;;;;;;;;4824990;29;20437;-45
2022/08/25 01:11:41;;;;;;;;;;;;;;;;;;4824847;29;20348;-43
2022/08/25 01:14:12;;;;;;;;;;;;;;;;;;4825184;29;19925;-44
2022/08/25 01:16:39;;;;;;;;;;;;;;;;;;4824820;29;19925;-43
2022/08/25 01:19:07;;;;;;;;;;;;;;;;;;4822319;29;19933;-43
2022/08/25 01:21:39;;;;;;;;;;;;;;;;;;4806439;29;20016;-41
2022/08/25 01:24:08;;;;;;;;;;;;;;;;;;4820532;29;19925;-43
2022/08/25 01:26:35;;;;;;;;;;;;;;;;;;4806076;29;19982;-44
2022/08/25 01:29:20;;;;;;;;;;;;;;;;;;4806394;29;20048;-45
2022/08/25 01:31:48;;;;;;;;;;;;;;;;;;4806213;29;20274;-43
2022/08/25 01:34:18;;;;;;;;;;;;;;;;;;4806494;29;19978;-43
2022/08/25 01:36:45;;;;;;;;;;;;;;;;;;4806166;29;19941;-43
2022/08/25 01:39:12;;;;;;;;;;;;;;;;;;4805589;29;19932;-45
2022/08/25 01:41:58;;;;;;;;;;;;;;;;;;4806358;29;19925;-43
2022/08/25 01:44:25;;;;;;;;;;;;;;;;;;4806420;29;19929;-44
2022/08/25 01:46:53;;;;;;;;;;;;;;;;;;4806209;29;19978;-43
2022/08/25 01:49:20;;;;;;;;;;;;;;;;;;4806047;29;19929;-45
2022/08/25 01:51:51;;;;;;;;;;;;;;;;;;4806469;29;20297;-44
2022/08/25 01:54:18;;;;;;;;;;;;;;;;;;4806131;29;19972;-43
2022/08/25 01:56:45;;;;;;;;;;;;;;;;;;4806017;29;19925;-43
2022/08/25 01:59:17;;;;;;;;;;;;;;;;;;4806036;29;19990;-44
2022/08/25 02:01:49;;;;;;;;;;;;;;;;;;4805496;29;19925;-43
2022/08/25 02:04:16;;;;;;;;;;;;;;;;;;4806139;29;19925;-43
2022/08/25 02:06:44;;;;;;;;;;;;;;;;;;4805761;29;19952;-43
2022/08/25 02:09:16;;;;;;;;;;;;;;;;;;4805781;29;19987;-43
2022/08/25 02:11:45;;;;;;;;;;;;;;;;;;4805871;29;19925;-43
2022/08/25 02:14:13;;;;;;;;;;;;;;;;;;4805759;29;19978;-44
2022/08/25 02:16:43;;;;;;;;;;;;;;;;;;4805565;29;19971;-45
2022/08/25 02:19:11;;;;;;;;;;;;;;;;;;4808747;29;19928;-44
2022/08/25 02:21:38;;;;;;;;;;;;;;;;;;4823974;29;19963;-43
2022/08/25 02:24:06;;;;;;;;;;;;;;;;;;4823660;29;19945;-43
2022/08/25 02:26:35;;;;;;;;;;;;;;;;;;4822705;29;19925;-43
2022/08/25 02:29:03;;;;;;;;;;;;;;;;;;4805497;29;20404;-42
2022/08/25 02:31:30;;;;;;;;;;;;;;;;;;4805857;29;19929;-43
2022/08/25 02:33:57;;;;;;;;;;;;;;;;;;4805409;29;19932;-43
2022/08/25 02:36:24;;;;;;;;;;;;;;;;;;4805318;29;19993;-49
2022/08/25 02:38:52;;;;;;;;;;;;;;;;;;4805037;29;19958;-43
2022/08/25 02:41:20;;;;;;;;;;;;;;;;;;4805218;29;20020;-43
2022/08/25 02:43:48;;;;;;;;;;;;;;;;;;4805552;29;20023;-43
2022/08/25 02:46:17;;;;;;;;;;;;;;;;;;4805505;29;19932;-44
2022/08/25 02:48:45;;;;;;;;;;;;;;;;;;4805165;29;19925;-43
2022/08/25 02:51:13;;;;;;;;;;;;;;;;;;4805138;29;19926;-44
2022/08/25 02:53:41;;;;;;;;;;;;;;;;;;4805248;29;19929;-44
2022/08/25 02:56:09;;;;;;;;;;;;;;;;;;4818995;29;19980;-44
2022/08/25 02:58:37;;;;;;;;;;;;;;;;;;4805195;29;20020;-44
2022/08/25 03:01:06;;;;;;;;;;;;;;;;;;4805035;29;20007;-43
2022/08/25 03:03:33;;;;;;;;;;;;;;;;;;4805192;29;20021;-43
2022/08/25 03:06:07;;;;;;;;;;;;;;;;;;4804216;29;19929;-43
2022/08/25 03:08:37;;;;;;;;;;;;;;;;;;4804204;29;19933;-45
2022/08/25 03:11:05;;;;;;;;;;;;;;;;;;4805416;29;20310;-45
2022/08/25 03:13:32;;;;;;;;;;;;;;;;;;4805332;29;20397;-43
2022/08/25 03:15:59;;;;;;;;;;;;;;;;;;4804907;29;19925;-43
2022/08/25 03:18:27;;;;;;;;;;;;;;;;;;4805182;29;20317;-44
2022/08/25 03:20:54;;;;;;;;;;;;;;;;;;4820717;29;19924;-43
2022/08/25 03:23:21;;;;;;;;;;;;;;;;;;4822861;29;20450;-47
2022/08/25 03:28:35;;;;;;;;;;;;;;;;;;4805165;29;20360;-46
2022/08/25 03:31:03;;;;;;;;;;;;;;;;;;4804920;29;19925;-45
2022/08/25 03:33:30;;;;;;;;;;;;;;;;;;4804611;29;20416;-44
2022/08/25 03:35:58;;;;;;;;;;;;;;;;;;4804869;29;20020;-44
2022/08/25 03:38:25;;;;;;;;;;;;;;;;;;4804688;29;20434;-49
2022/08/25 03:40:52;;;;;;;;;;;;;;;;;;4804632;29;19925;-43
2022/08/25 03:43:20;;;;;;;;;;;;;;;;;;4804716;29;19932;-46
2022/08/25 03:45:47;;;;;;;;;;;;;;;;;;4804362;29;19925;-43
2022/08/25 03:48:15;;;;;;;;;;;;;;;;;;4804447;29;19936;-45
2022/08/25 03:50:43;;;;;;;;;;;;;;;;;;4804960;29;20442;-47
2022/08/25 03:53:10;;;;;;;;;;;;;;;;;;4804989;29;19972;-43
2022/08/25 03:55:37;;;;;;;;;;;;;;;;;;4805140;29;19932;-50
2022/08/25 03:58:05;;;;;;;;;;;;;;;;;;4804966;29;19978;-51
2022/08/25 04:00:32;;;;;;;;;;;;;;;;;;4804489;29;20064;-47
2022/08/25 04:02:59;;;;;;;;;;;;;;;;;;4805693;29;19929;-44
2022/08/25 04:05:26;;;;;;;;;;;;;;;;;;4808034;29;20377;-49
2022/08/25 04:07:54;;;;;;;;;;;;;;;;;;4807813;29;19959;-44
2022/08/25 04:10:22;;;;;;;;;;;;;;;;;;4808213;29;19932;-43
2022/08/25 04:12:49;;;;;;;;;;;;;;;;;;4807891;29;20384;-44
2022/08/25 04:15:17;;;;;;;;;;;;;;;;;;4807698;29;20031;-46
2022/08/25 04:17:44;;;;;;;;;;;;;;;;;;4807941;29;19932;-44
2022/08/25 04:20:11;;;;;;;;;;;;;;;;;;4818107;29;19973;-43
2022/08/25 04:22:39;;;;;;;;;;;;;;;;;;4825637;29;19929;-45
2022/08/25 04:25:07;;;;;;;;;;;;;;;;;;4825604;29;20019;-43
2022/08/25 04:27:34;;;;;;;;;;;;;;;;;;4825727;29;19925;-45
2022/08/25 04:30:03;;;;;;;;;;;;;;;;;;4825720;29;19928;-43
2022/08/25 04:32:31;;;;;;;;;;;;;;;;;;4825664;29;19924;-44
2022/08/25 04:34:58;;;;;;;;;;;;;;;;;;4825515;29;20082;-44
2022/08/25 04:37:25;;;;;;;;;;;;;;;;;;4825470;29;20301;-44
2022/08/25 04:39:52;;;;;;;;;;;;;;;;;;4839572;29;19967;-45
2022/08/25 04:42:20;;;;;;;;;;;;;;;;;;4825100;29;19958;-43
2022/08/25 04:44:48;;;;;;;;;;;;;;;;;;4825307;29;19925;-45
2022/08/25 04:47:16;;;;;;;;;;;;;;;;;;4825448;29;20335;-43
2022/08/25 04:49:43;;;;;;;;;;;;;;;;;;4825436;29;19925;-43
2022/08/25 04:52:10;;;;;;;;;;;;;;;;;;4825310;29;20024;-43
2022/08/25 04:54:40;;;;;;;;;;;;;;;;;;4825116;29;19973;-46
2022/08/25 04:57:08;;;;;;;;;;;;;;;;;;4825152;29;20324;-43
2022/08/25 04:59:35;;;;;;;;;;;;;;;;;;4825320;29;20019;-46
2022/08/25 05:02:05;;;;;;;;;;;;;;;;;;4825022;29;20385;-44
2022/08/25 05:04:33;;;;;;;;;;;;;;;;;;4825153;29;19932;-43
2022/08/25 05:07:01;;;;;;;;;;;;;;;;;;4825055;29;19928;-45
2022/08/25 05:09:29;;;;;;;;;;;;;;;;;;4838893;29;19936;-43
2022/08/25 05:11:58;;;;;;;;;;;;;;;;;;4825070;29;19929;-44
2022/08/25 05:14:26;;;;;;;;;;;;;;;;;;4823798;29;19929;-42
2022/08/25 05:16:53;;;;;;;;;;;;;;;;;;4824704;29;19924;-45
2022/08/25 05:19:22;;;;;;;;;;;;;;;;;;4820529;29;19964;-48
2022/08/25 05:21:49;;;;;;;;;;;;;;;;;;4806291;29;19974;-49
2022/08/25 05:24:17;;;;;;;;;;;;;;;;;;4806619;29;20018;-43
2022/08/25 05:26:44;;;;;;;;;;;;;;;;;;4806136;29;20274;-44
2022/08/25 05:29:12;;;;;;;;;;;;;;;;;;4806659;29;19964;-44
2022/08/25 05:31:39;;;;;;;;;;;;;;;;;;4806555;29;19997;-45
2022/08/25 05:34:10;;;;;;;;;;;;;;;;;;4806535;29;19925;-45
2022/08/25 05:36:41;;;;;;;;;;;;;;;;;;4806475;29;20000;-43
2022/08/25 05:39:09;;;;;;;;;;;;;;;;;;4806278;29;19925;-44
2022/08/25 05:41:37;;;;;;;;;;;;;;;;;;4806353;29;19932;-43
2022/08/25 05:44:04;;;;;;;;;;;;;;;;;;4806468;29;19925;-54
2022/08/25 05:46:32;;;;;;;;;;;;;;;;;;4806140;29;19952;-44
2022/08/25 05:48:59;;;;;;;;;;;;;;;;;;4805695;29;19935;-44
2022/08/25 05:51:26;;;;;;;;;;;;;;;;;;4806220;29;19948;-46
2022/08/25 05:53:53;;;;;;;;;;;;;;;;;;4806082;29;20437;-44
2022/08/25 05:56:21;;;;;;;;;;;;;;;;;;4805967;29;19925;-45
2022/08/25 05:58:49;;;;;;;;;;;;;;;;;;4806047;29;19925;-45
2022/08/25 06:04:06;;;;;;;;;;;;;;;;;;4806157;29;19925;-44
2022/08/25 06:06:35;;;;;;;;;;;;;;;;;;4805849;29;19931;-44
2022/08/25 06:09:05;;;;;;;;;;;;;;;;;;4805895;29;20061;-43
2022/08/25 06:11:32;;;;;;;;;;;;;;;;;;4805680;29;19925;-45
2022/08/25 06:14:00;;;;;;;;;;;;;;;;;;4805591;29;20020;-43
2022/08/25 06:16:29;;;;;;;;;;;;;;;;;;4805854;29;20274;-48
2022/08/25 06:18:57;;;;;;;;;;;;;;;;;;4806326;29;20007;-46
2022/08/25 06:21:24;;;;;;;;;;;;;;;;;;4823877;29;20441;-44
2022/08/25 06:23:51;;;;;;;;;;;;;;;;;;4823608;29;20396;-45
2022/08/25 06:26:18;;;;;;;;;;;;;;;;;;4823433;29;19929;-44
2022/08/25 06:28:47;;;;;;;;;;;;;;;;;;4823717;29;20273;-47
2022/08/25 06:31:14;;;;;;;;;;;;;;;;;;4823679;29;19925;-45
2022/08/25 06:33:42;;;;;;;;;;;;;;;;;;4823779;29;19936;-44
2022/08/25 06:36:10;;;;;;;;;;;;;;;;;;4823667;29;19925;-45
2022/08/25 06:38:37;;;;;;;;;;;;;;;;;;4823847;29;19924;-45
2022/08/25 06:41:05;;;;;;;;;;;;;;;;;;4823577;29;19945;-45
2022/08/25 06:43:33;;;;;;;;;;;;;;;;;;4823316;29;20393;-44
2022/08/25 06:46:08;;;;;;;;;;;;;;;;;;4823374;29;19925;-44
2022/08/25 06:48:36;;;;;;;;;;;;;;;;;;4823797;29;20357;-45
2022/08/25 06:51:11;;;;;;;;;;;;;;;;;;4823617;29;19932;-45
2022/08/25 06:53:40;;;;;;;;;;;;;;;;;;4823497;29;19936;-43
2022/08/25 06:56:07;;;;;;;;;;;;;;;;;;4823734;29;19948;-45
2022/08/25 06:58:34;;;;;;;;;;;;;;;;;;4823816;29;19925;-46
2022/08/25 07:01:22;;;;;;;;;;;;;;;;;;4823452;29;20346;-44
2022/08/25 07:03:58;;;;;;;;;;;;;;;;;;4823294;29;19924;-48
2022/08/25 07:06:26;;;;;;;;;;;;;;;;;;4822679;29;19929;-44
2022/08/25 07:08:53;;;;;;;;;;;;;;;;;;4823297;29;19925;-48
2022/08/25 07:11:20;;;;;;;;;;;;;;;;;;4823379;29;19925;-46
2022/08/25 07:13:48;;;;;;;;;;;;;;;;;;4808299;29;19925;-47
2022/08/25 07:16:16;;;;;;;;;;;;;;;;;;4804907;29;20373;-46
2022/08/25 07:18:44;;;;;;;;;;;;;;;;;;4804500;29;19933;-47
2022/08/25 07:21:12;;;;;;;;;;;;;;;;;;4804875;29;20020;-46
2022/08/25 07:23:40;;;;;;;;;;;;;;;;;;4804677;29;19974;-46
2022/08/25 07:26:07;;;;;;;;;;;;;;;;;;4804604;29;20354;-44
2022/08/25 07:28:41;;;;;;;;;;;;;;;;;;4804353;29;19932;-45
2022/08/25 07:31:28;;;;;;;;;;;;;;;;;;4805041;29;19940;-49
2022/08/25 07:36:42;;;;;;;;;;;;;;;;;;4804649;29;20470;-44
2022/08/25 07:39:10;;;;;;;;;;;;;;;;;;4807917;29;19932;-45
2022/08/25 07:41:39;;;;;;;;;;;;;;;;;;4808326;29;19958;-45
2022/08/25 07:44:06;;;;;;;;;;;;;;;;;;4808427;29;20353;-45
2022/08/25 07:46:34;;;;;;;;;;;;;;;;;;4807371;29;20278;-44
2022/08/25 07:49:01;;;;;;;;;;;;;;;;;;4808075;29;19978;-44
2022/08/25 07:51:28;;;;;;;;;;;;;;;;;;4808356;29;20360;-45
2022/08/25 07:53:56;;;;;;;;;;;;;;;;;;4807793;29;19925;-45
2022/08/25 07:56:23;;;;;;;;;;;;;;;;;;4807981;29;19925;-46
2022/08/25 07:58:50;;;;;;;;;;;;;;;;;;4807625;29;19940;-45
2022/08/25 08:01:21;;;;;;;;;;;;;;;;;;4808117;29;20353;-47
2022/08/25 08:03:52;;;;;;;;;;;;;;;;;;4807642;29;19932;-44
2022/08/25 08:06:22;;;;;;;;;;;;;;;;;;4807844;29;19974;-51
2022/08/25 08:08:50;;;;;;;;;;;;;;;;;;4807760;29;19925;-45
2022/08/25 08:11:19;;;;;;;;;;;;;;;;;;4807626;29;19925;-46
2022/08/25 08:13:47;;;;;;;;;;;;;;;;;;4807917;29;20451;-47
2022/08/25 08:16:17;;;;;;;;;;;;;;;;;;4821273;29;19935;-46
2022/08/25 08:18:45;;;;;;;;;;;;;;;;;;4807458;29;19925;-44
2022/08/25 08:21:16;;;;;;;;;;;;;;;;;;4807483;29;19925;-44
2022/08/25 08:23:46;;;;;;;;;;;;;;;;;;4807331;29;19991;-44
2022/08/25 08:26:13;;;;;;;;;;;;;;;;;;4807046;29;20405;-44
2022/08/25 08:28:40;;;;;;;;;;;;;;;;;;4807280;29;19925;-47
2022/08/25 08:31:07;;;;;;;;;;;;;;;;;;4807566;29;20031;-44
2022/08/25 08:33:37;;;;;;;;;;;;;;;;;;4807622;29;19925;-46
2022/08/25 08:36:08;;;;;;;;;;;;;;;;;;4807224;29;19932;-47
2022/08/25 08:38:35;;;;;;;;;;;;;;;;;;4807749;29;19925;-46
2022/08/25 08:44:18;;;;;;;;;;;;;;;;;;4807078;29;19974;-46
2022/08/25 08:46:58;;;;;;;;;;;;;;;;;;4806515;29;19973;-44
2022/08/25 08:49:34;;;;;;;;;;;;;;;;;;4805599;29;20466;-49
2022/08/25 08:52:01;;;;;;;;;;;;;;;;;;4807004;29;20381;-46
2022/08/25 08:54:33;;;;;;;;;;;;;;;;;;4807030;29;20374;-44
2022/08/25 08:57:15;;;;;;;;;;;;;;;;;;4806880;29;19936;-45
2022/08/25 08:59:48;;;;;;;;;;;;;;;;;;4807057;29;20325;-44
2022/08/25 09:02:21;;;;;;;;;;;;;;;;;;4807004;29;20331;-44
2022/08/25 09:05:09;;;;;;;;;;;;;;;;;;4807040;29;20023;-44
2022/08/25 09:07:40;;;;;;;;;;;;;;;;;;4806839;29;20373;-48
2022/08/25 09:10:08;;;;;;;;;;;;;;;;;;4806895;29;19925;-50
2022/08/25 09:12:43;;;;;;;;;;;;;;;;;;4807314;29;19925;-44
2022/08/25 09:15:16;;;;;;;;;;;;;;;;;;4806920;29;19932;-47
2022/08/25 09:17:51;;;;;;;;;;;;;;;;;;4806526;29;19932;-45
2022/08/25 09:20:39;;;;;;;;;;;;;;;;;;4820030;29;19935;-44
2022/08/25 09:23:13;;;;;;;;;;;;;;;;;;4824610;29;20672;-43
2022/08/25 09:25:44;;;;;;;;;;;;;;;;;;4824378;29;19924;-46
2022/08/25 09:28:28;;;;;;;;;;;;;;;;;;4824772;29;19951;-43
2022/08/25 09:31:01;;;;;;;;;;;;;;;;;;4824550;29;20404;-44
2022/08/25 09:33:30;;;;;;;;;;;;;;;;;;4824443;29;20384;-44
2022/08/25 09:35:59;;;;;;;;;;;;;;;;;;4824439;29;19928;-47
2022/08/25 09:38:27;;;;;;;;;;;;;;;;;;4824652;29;19928;-45
2022/08/25 09:40:59;;;;;;;;;;;;;;;;;;4824284;29;20358;-45
2022/08/25 09:43:34;;;;;;;;;;;;;;;;;;4824259;29;19973;-45
2022/08/25 09:46:09;;;;;;;;;;;;;;;;;;4824433;29;19924;-44
2022/08/25 09:48:47;;;;;;;;;;;;;;;;;;4824515;29;19924;-46
2022/08/25 09:51:26;;;;;;;;;;;;;;;;;;4824517;29;19964;-44
2022/08/25 09:53:56;;;;;;;;;;;;;;;;;;4824323;29;20006;-45
2022/08/25 09:56:30;;;;;;;;;;;;;;;;;;4824151;29;19924;-45
2022/08/25 09:59:16;;;;;;;;;;;;;;;;;;4823824;29;19932;-44
2022/08/25 10:01:54;;;;;;;;;;;;;;;;;;4823558;29;19924;-43
2022/08/25 10:04:39;;;;;;;;;;;;;;;;;;4824260;29;19931;-43
2022/08/25 10:07:24;;;;;;;;;;;;;;;;;;4824248;29;19928;-46
2022/08/25 10:09:53;;;;;;;;;;;;;;;;;;4824012;29;19925;-46
2022/08/25 10:12:28;;;;;;;;;;;;;;;;;;4823812;29;19981;-43
2022/08/25 10:14:56;;;;;;;;;;;;;;;;;;4823617;29;19981;-45
2022/08/25 10:17:27;;;;;;;;;;;;;;;;;;4824104;29;19998;-43
2022/08/25 10:20:10;;;;;;;;;;;;;;;;;;4807978;29;19939;-44
2022/08/25 10:22:38;;;;;;;;;;;;;;;;;;4805898;29;20441;-45
2022/08/25 10:25:07;;;;;;;;;;;;;;;;;;4805437;29;19929;-45
2022/08/25 10:27:38;;;;;;;;;;;;;;;;;;4819962;29;19932;-44
2022/08/25 10:30:07;;;;;;;;;;;;;;;;;;4805670;29;20535;-44
2022/08/25 10:32:34;;;;;;;;;;;;;;;;;;4819734;29;19925;-43
2022/08/25 10:35:11;;;;;;;;;;;;;;;;;;4805466;29;19929;-46
2022/08/25 10:37:45;;;;;;;;;;;;;;;;;;4805637;29;20343;-44
2022/08/25 10:40:24;;;;;;;;;;;;;;;;;;4805436;29;19978;-43
2022/08/25 10:42:52;;;;;;;;;;;;;;;;;;4805004;29;20354;-45
2022/08/25 10:45:42;;;;;;;;;;;;;;;;;;4805342;29;20017;-44
2022/08/25 10:48:22;;;;;;;;;;;;;;;;;;4805459;29;19975;-45
2022/08/25 10:50:55;;;;;;;;;;;;;;;;;;4805286;29;19982;-45
2022/08/25 10:53:28;;;;;;;;;;;;;;;;;;4805270;29;19931;-44
2022/08/25 10:56:11;;;;;;;;;;;;;;;;;;4805143;29;19932;-44
2022/08/25 10:58:43;;;;;;;;;;;;;;;;;;4805583;29;20342;-48
2022/08/25 11:01:14;;;;;;;;;;;;;;;;;;4805104;29;19932;-45
2022/08/25 11:04:10;;;;;;;;;;;;;;;;;;4805028;29;19936;-46
2022/08/25 11:06:41;;;;;;;;;;;;;;;;;;4803281;29;19925;-44
2022/08/25 11:09:11;;;;;;;;;;;;;;;;;;4805268;29;19974;-51
2022/08/25 11:11:44;;;;;;;;;;;;;;;;;;4806397;29;19925;-46
2022/08/25 11:14:17;;;;;;;;;;;;;;;;;;4808798;29;19925;-45
2022/08/25 11:16:50;;;;;;;;;;;;;;;;;;4808821;29;19929;-52
2022/08/25 11:19:22;;;;;;;;;;;;;;;;;;4812864;29;19925;-50
2022/08/25 11:22:13;;;;;;;;;;;;;;;;;;4826564;29;20445;-43
2022/08/25 11:24:46;;;;;;;;;;;;;;;;;;4828431;29;19929;-43
2022/08/25 11:27:24;;;;;;;;;;;;;;;;;;4826642;29;20582;-44
2022/08/25 11:30:02;;;;;;;;;;;;;;;;;;4826752;29;19925;-45
2022/08/25 11:32:34;;;;;;;;;;;;;;;;;;4826599;29;19931;-44
2022/08/25 11:35:03;;;;;;;;;;;;;;;;;;4826339;29;20420;-44
2022/08/25 11:37:31;;;;;;;;;;;;;;;;;;4826515;29;19999;-45
2022/08/25 11:40:08;;;;;;;;;;;;;;;;;;4826406;29;19925;-51
2022/08/25 11:43:02;;;;;;;;;;;;;;;;;;4826424;29;19924;-43
2022/08/25 11:45:42;;;;;;;;;;;;;;;;;;4839892;29;20044;-46
2022/08/25 11:48:09;;;;;;;;;;;;;;;;;;4826609;29;19928;-44
2022/08/25 11:50:55;;;;;;;;;;;;;;;;;;4826528;29;20454;-46
2022/08/25 11:53:27;;;;;;;;;;;;;;;;;;4826369;29;19964;-46
2022/08/25 11:56:19;;;;;;;;;;;;;;;;;;4826213;29;19935;-44
2022/08/25 11:58:47;;;;;;;;;;;;;;;;;;4827738;29;20346;-45
2022/08/25 12:01:28;;;;;;;;;;;;;;;;;;4826068;29;19979;-45
2022/08/25 12:04:14;;;;;;;;;;;;;;;;;;4825649;29;19929;-46
2022/08/25 12:07:09;;;;;;;;;;;;;;;;;;4825873;29;19925;-44
2022/08/25 12:09:48;;;;;;;;;;;;;;;;;;4826593;29;20015;-56
2022/08/25 12:12:29;;;;;;;;;;;;;;;;;;4839960;29;19924;-50
2022/08/25 12:15:23;;;;;;;;;;;;;;;;;;4825620;29;20007;-46
2022/08/25 12:18:09;;;;;;;;;;;;;;;;;;4831339;29;19924;-47
2022/08/25 12:20:55;;;;;;;;;;;;;;;;;;4811986;29;20408;-45
2022/08/25 12:23:30;;;;;;;;;;;;;;;;;;4807166;29;19932;-44
2022/08/25 12:26:00;;;;;;;;;;;;;;;;;;4820077;29;19928;-43
2022/08/25 12:28:35;;;;;;;;;;;;;;;;;;4824598;29;20385;-39
2022/08/25 12:31:06;;;;;;;;;;;;;;;;;;4825169;29;20027;-40
2022/08/25 12:33:34;;;;;;;;;;;;;;;;;;4807469;29;19935;-44
2022/08/25 12:36:03;;;;;;;;;;;;;;;;;;4807617;29;19962;-45
2022/08/25 12:38:43;;;;;;;;;;;;;;;;;;4807365;29;19935;-45
2022/08/25 12:41:18;;;;;;;;;;;;;;;;;;4807456;29;19925;-53
2022/08/25 12:43:46;;;;;;;;;;;;;;;;;;4807188;29;20007;-47
2022/08/25 12:46:20;;;;;;;;;;;;;;;;;;4807478;29;19929;-45
2022/08/25 12:48:59;;;;;;;;;;;;;;;;;;4807156;29;19987;-47
2022/08/25 12:51:32;;;;;;;;;;;;;;;;;;4807536;29;19974;-45
2022/08/25 12:54:16;;;;;;;;;;;;;;;;;;4807098;29;19924;-47
2022/08/25 12:56:46;;;;;;;;;;;;;;;;;;4806613;29;19929;-44
2022/08/25 12:59:22;;;;;;;;;;;;;;;;;;4806440;29;19968;-45
2022/08/25 13:02:00;;;;;;;;;;;;;;;;;;4806727;29;19976;-46
2022/08/25 13:04:35;;;;;;;;;;;;;;;;;;4819927;29;20023;-44
2022/08/25 13:07:05;;;;;;;;;;;;;;;;;;4806238;29;19929;-45
2022/08/25 13:09:35;;;;;;;;;;;;;;;;;;4806531;29;20279;-47
2022/08/25 13:12:21;;;;;;;;;;;;;;;;;;4806672;29;20270;-45
2022/08/25 13:14:53;;;;;;;;;;;;;;;;;;4820406;29;19925;-46
2022/08/25 13:17:30;;;;;;;;;;;;;;;;;;4806858;29;20406;-43
2022/08/25 13:20:11;;;;;;;;;;;;;;;;;;4815542;29;19987;-45
2022/08/25 13:22:39;;;;;;;;;;;;;;;;;;4825435;29;19925;-48
2022/08/25 13:25:13;;;;;;;;;;;;;;;;;;4838368;29;19929;-45
2022/08/25 13:27:47;;;;;;;;;;;;;;;;;;4837354;29;20559;-44
2022/08/25 13:30:25;;;;;;;;;;;;;;;;;;4824500;29;19925;-45
2022/08/25 13:32:53;;;;;;;;;;;;;;;;;;4824657;29;19925;-50
2022/08/25 13:35:23;;;;;;;;;;;;;;;;;;4823789;29;20011;-44
2022/08/25 13:37:52;;;;;;;;;;;;;;;;;;4824439;29;19928;-47
2022/08/25 13:40:19;;;;;;;;;;;;;;;;;;4823117;29;20591;-45
2022/08/25 13:42:58;;;;;;;;;;;;;;;;;;4822455;29;19985;-48
2022/08/25 13:45:27;;;;;;;;;;;;;;;;;;4822692;29;19977;-45
2022/08/25 13:47:57;;;;;;;;;;;;;;;;;;4822698;29;19931;-44
2022/08/25 13:50:25;;;;;;;;;;;;;;;;;;4822553;29;19929;-48
2022/08/25 13:53:13;;;;;;;;;;;;;;;;;;4822357;29;19935;-44
2022/08/25 13:55:44;;;;;;;;;;;;;;;;;;4823822;29;20282;-44
2022/08/25 13:58:22;;;;;;;;;;;;;;;;;;4838146;29;20354;-44
2022/08/25 14:01:08;;;;;;;;;;;;;;;;;;4824075;29;20340;-44
2022/08/25 14:03:49;;;;;;;;;;;;;;;;;;4824322;29;20347;-44
2022/08/25 14:06:16;;;;;;;;;;;;;;;;;;4823805;29;20300;-45
2022/08/25 14:09:06;;;;;;;;;;;;;;;;;;4824191;29;20351;-45
2022/08/25 14:11:42;;;;;;;;;;;;;;;;;;4825952;29;20419;-47
2022/08/25 14:14:29;;;;;;;;;;;;;;;;;;4824480;29;20012;-46
2022/08/25 14:17:05;;;;;;;;;;;;;;;;;;4823878;29;19924;-50
2022/08/25 14:19:44;;;;;;;;;;;;;;;;;;4816607;29;20408;-46
2022/08/25 14:22:12;;;;;;;;;;;;;;;;;;4805506;29;19988;-44
2022/08/25 14:24:39;;;;;;;;;;;;;;;;;;4805823;29;20392;-46
2022/08/25 14:27:06;;;;;;;;;;;;;;;;;;4804210;29;19929;-44
2022/08/25 14:29:33;;;;;;;;;;;;;;;;;;4805135;29;20016;-43
2022/08/25 14:32:01;;;;;;;;;;;;;;;;;;4805516;29;20393;-45
2022/08/25 14:34:31;;;;;;;;;;;;;;;;;;4805638;29;19924;-43
2022/08/25 14:36:59;;;;;;;;;;;;;;;;;;4805159;29;20436;-47
2022/08/25 14:39:26;;;;;;;;;;;;;;;;;;4805622;29;20000;-46
2022/08/25 14:41:53;;;;;;;;;;;;;;;;;;4805230;29;19925;-48
2022/08/25 14:44:21;;;;;;;;;;;;;;;;;;4805281;29;19925;-43
2022/08/25 14:46:49;;;;;;;;;;;;;;;;;;4804167;29;20285;-43
2022/08/25 14:49:22;;;;;;;;;;;;;;;;;;4819232;29;19968;-43
2022/08/25 14:51:50;;;;;;;;;;;;;;;;;;4805535;29;19982;-46
2022/08/25 14:54:18;;;;;;;;;;;;;;;;;;4805154;29;19929;-43
2022/08/25 14:56:49;;;;;;;;;;;;;;;;;;4805266;29;19929;-45
2022/08/25 14:59:17;;;;;;;;;;;;;;;;;;4805276;29;20296;-43
2022/08/25 15:01:47;;;;;;;;;;;;;;;;;;4805196;29;19971;-44
2022/08/25 15:04:17;;;;;;;;;;;;;;;;;;4805290;29;19929;-45
2022/08/25 15:06:45;;;;;;;;;;;;;;;;;;4804950;29;19968;-46
2022/08/25 15:09:15;;;;;;;;;;;;;;;;;;4804934;29;20042;-44
2022/08/25 15:11:43;;;;;;;;;;;;;;;;;;4805083;29;19989;-45
2022/08/25 15:14:17;;;;;;;;;;;;;;;;;;4805080;29;19925;-46
2022/08/25 15:16:46;;;;;;;;;;;;;;;;;;4805068;29;19972;-46
2022/08/25 15:19:15;;;;;;;;;;;;;;;;;;4808319;29;20015;-46
2022/08/25 15:21:45;;;;;;;;;;;;;;;;;;4823245;29;19925;-46
2022/08/25 15:24:14;;;;;;;;;;;;;;;;;;4822846;29;19929;-46
2022/08/25 15:26:46;;;;;;;;;;;;;;;;;;4821855;29;19924;-46
2022/08/25 15:29:13;;;;;;;;;;;;;;;;;;4821949;29;20019;-46
2022/08/25 15:31:41;;;;;;;;;;;;;;;;;;4823026;29;20397;-44
2022/08/25 15:34:08;;;;;;;;;;;;;;;;;;4823415;29;19924;-47
2022/08/25 15:36:39;;;;;;;;;;;;;;;;;;4823214;29;19976;-44
2022/08/25 15:39:06;;;;;;;;;;;;;;;;;;4822902;29;19933;-44
2022/08/25 15:41:35;;;;;;;;;;;;;;;;;;4822981;29;20281;-46
2022/08/25 15:44:04;;;;;;;;;;;;;;;;;;4823254;29;19932;-47
2022/08/25 15:46:35;;;;;;;;;;;;;;;;;;4822521;29;19925;-46
2022/08/25 15:49:06;;;;;;;;;;;;;;;;;;4835863;29;19928;-50
2022/08/25 15:51:34;;;;;;;;;;;;;;;;;;4822942;29;19931;-44
2022/08/25 15:54:01;;;;;;;;;;;;;;;;;;4823212;29;19929;-56
2022/08/25 15:56:32;;;;;;;;;;;;;;;;;;4822851;29;20006;-43
2022/08/25 15:59:02;;;;;;;;;;;;;;;;;;4824046;29;19963;-51
2022/08/25 16:01:29;;;;;;;;;;;;;;;;;;4825956;29;19933;-44
2022/08/25 16:03:57;;;;;;;;;;;;;;;;;;4826105;29;19925;-46
2022/08/25 16:06:25;;;;;;;;;;;;;;;;;;4826028;29;20301;-44
2022/08/25 16:08:52;;;;;;;;;;;;;;;;;;4825841;29;20392;-44
2022/08/25 16:11:21;;;;;;;;;;;;;;;;;;4826161;29;19929;-44
2022/08/25 16:13:50;;;;;;;;;;;;;;;;;;4825977;29;19983;-46
2022/08/25 16:16:19;;;;;;;;;;;;;;;;;;4825763;29;20424;-45
2022/08/25 16:18:46;;;;;;;;;;;;;;;;;;4825828;29;20050;-43
2022/08/25 16:21:16;;;;;;;;;;;;;;;;;;4807664;29;19972;-45
2022/08/25 16:23:44;;;;;;;;;;;;;;;;;;4807767;29;19978;-43
2022/08/25 16:26:11;;;;;;;;;;;;;;;;;;4807193;29;19971;-44
2022/08/25 16:28:39;;;;;;;;;;;;;;;;;;4807119;29;20304;-45
2022/08/25 16:31:13;;;;;;;;;;;;;;;;;;4807683;29;20008;-46
2022/08/25 16:33:41;;;;;;;;;;;;;;;;;;4807943;29;19931;-46
2022/08/25 16:36:10;;;;;;;;;;;;;;;;;;4807882;29;19925;-45
2022/08/25 16:38:40;;;;;;;;;;;;;;;;;;4807543;29;20047;-44
2022/08/25 16:41:12;;;;;;;;;;;;;;;;;;4821227;29;19929;-46
2022/08/25 16:43:39;;;;;;;;;;;;;;;;;;4807551;29;20343;-46
2022/08/25 16:46:08;;;;;;;;;;;;;;;;;;4807444;29;19933;-46
2022/08/25 16:48:36;;;;;;;;;;;;;;;;;;4807297;29;19967;-43
2022/08/25 16:51:08;;;;;;;;;;;;;;;;;;4807220;29;19935;-44
2022/08/25 16:56:23;;;;;;;;;;;;;;;;;;4805554;29;19925;-45
2022/08/25 16:58:54;;;;;;;;;;;;;;;;;;4806407;29;19931;-45
2022/08/25 17:01:22;;;;;;;;;;;;;;;;;;4807057;29;19929;-44
2022/08/25 17:03:53;;;;;;;;;;;;;;;;;;4807133;29;19953;-44
2022/08/25 17:06:21;;;;;;;;;;;;;;;;;;4806365;29;19925;-46
2022/08/25 17:08:49;;;;;;;;;;;;;;;;;;4805983;29;20025;-46
2022/08/25 17:11:16;;;;;;;;;;;;;;;;;;4805169;29;19925;-44
2022/08/25 17:13:46;;;;;;;;;;;;;;;;;;4806709;29;19925;-44
2022/08/25 17:16:13;;;;;;;;;;;;;;;;;;4806883;29;19932;-45
2022/08/25 17:18:41;;;;;;;;;;;;;;;;;;4806886;29;19932;-45
2022/08/25 17:21:11;;;;;;;;;;;;;;;;;;4824663;29;20440;-45
2022/08/25 17:23:39;;;;;;;;;;;;;;;;;;4824999;29;20445;-45
2022/08/25 17:26:10;;;;;;;;;;;;;;;;;;4824988;29;19928;-43